sensor_id;sensor_type;location;lat;lon;timestamp;temperature;humidity
23801;DHT22;12081;48.614;10.226;2023-09-19T00:02:16;14.90;99.90
23801;DHT22;12081;48.614;10.226;2023-09-19T00:05:00;14.90;99.90
23801;DHT22;12081;48.614;10.226;2023-09-19T00:07:56;15.00;99.90
23801;DHT22;12081;48.614;10.226;2023-09-19T00:10:42;15.00;99.90
23801;DHT22;12081;48.614;10.226;2023-09-19T00:13:27;15.00;99.90
23801;DHT22;12081;48.614;10.226;2023-09-19T00:16:12;15.10;99.90
23801;DHT22;12081;48.614;10.226;2023-09-19T00:18:59;15.00;99.90
23801;DHT22;12081;48.614;10.226;2023-09-19T00:21:48;15.00;99.90
23801;DHT22;12081;48.614;10.226;2023-09-19T00:24:32;15.00;99.90
23801;DHT22;12081;48.614;10.226;2023-09-19T00:27:16;15.00;99.90
23801;DHT22;12081;48.614;10.226;2023-09-19T00:30:00;15.20;99.90
23801;DHT22;12081;48.614;10.226;2023-09-19T00:32:45;14.90;99.90
23801;DHT22;12081;48.614;10.226;2023-09-19T00:35:31;15.00;99.90
23801;DHT22;12081;48.614;10.226;2023-09-19T00:38:15;14.90;99.90
23801;DHT22;12081;48.614;10.226;2023-09-19T00:41:02;15.30;99.90
23801;DHT22;12081;48.614;10.226;2023-09-19T00:43:46;13.20;99.90
23801;DHT22;12081;48.614;10.226;2023-09-19T00:46:32;14.00;99.90
23801;DHT22;12081;48.614;10.226;2023-09-19T00:49:16;14.80;99.90
23801;DHT22;12081;48.614;10.226;2023-09-19T00:52:01;14.80;99.90
23801;DHT22;12081;48.614;10.226;2023-09-19T00:54:49;14.90;99.90
23801;DHT22;12081;48.614;10.226;2023-09-19T00:57:36;14.70;99.90
23801;DHT22;12081;48.614;10.226;2023-09-19T01:00:22;15.10;99.90
23801;DHT22;12081;48.614;10.226;2023-09-19T01:03:15;14.70;99.90
23801;DHT22;12081;48.614;10.226;2023-09-19T01:06:02;14.70;99.90
23801;DHT22;12081;48.614;10.226;2023-09-19T01:08:49;14.60;99.90
23801;DHT22;12081;48.614;10.226;2023-09-19T01:11:39;15.60;99.90
23801;DHT22;12081;48.614;10.226;2023-09-19T01:14:46;14.60;99.90
23801;DHT22;12081;48.614;10.226;2023-09-19T01:18:02;14.60;99.90
23801;DHT22;12081;48.614;10.226;2023-09-19T01:27:44;14.40;99.90
23801;DHT22;12081;48.614;10.226;2023-09-19T01:30:35;12.50;99.90
23801;DHT22;12081;48.614;10.226;2023-09-19T01:33:24;14.40;99.90
23801;DHT22;12081;48.614;10.226;2023-09-19T01:36:08;14.40;99.90
23801;DHT22;12081;48.614;10.226;2023-09-19T01:38:54;15.80;99.90
23801;DHT22;12081;48.614;10.226;2023-09-19T01:45:07;14.50;99.90
23801;DHT22;12081;48.614;10.226;2023-09-19T01:47:55;14.30;99.90
23801;DHT22;12081;48.614;10.226;2023-09-19T01:51:00;14.30;99.90
23801;DHT22;12081;48.614;10.226;2023-09-19T01:53:53;14.60;99.90
23801;DHT22;12081;48.614;10.226;2023-09-19T01:57:01;14.30;99.90
23801;DHT22;12081;48.614;10.226;2023-09-19T01:59:57;13.00;99.90
23801;DHT22;12081;48.614;10.226;2023-09-19T02:02:46;14.50;99.90
23801;DHT22;12081;48.614;10.226;2023-09-19T02:05:31;14.30;99.90
23801;DHT22;12081;48.614;10.226;2023-09-19T02:08:19;15.40;99.90
23801;DHT22;12081;48.614;10.226;2023-09-19T02:11:03;14.40;99.90
23801;DHT22;12081;48.614;10.226;2023-09-19T02:13:48;14.40;99.90
23801;DHT22;12081;48.614;10.226;2023-09-19T02:16:38;14.80;99.90
23801;DHT22;12081;48.614;10.226;2023-09-19T02:19:22;14.30;99.90
23801;DHT22;12081;48.614;10.226;2023-09-19T02:22:07;14.50;99.90
23801;DHT22;12081;48.614;10.226;2023-09-19T02:24:54;14.40;99.90
23801;DHT22;12081;48.614;10.226;2023-09-19T02:27:38;14.40;99.90
23801;DHT22;12081;48.614;10.226;2023-09-19T02:30:26;15.90;99.90
23801;DHT22;12081;48.614;10.226;2023-09-19T02:33:11;14.40;99.90
23801;DHT22;12081;48.614;10.226;2023-09-19T02:35:56;14.50;99.90
23801;DHT22;12081;48.614;10.226;2023-09-19T02:38:44;14.60;99.90
23801;DHT22;12081;48.614;10.226;2023-09-19T02:41:28;14.30;99.90
23801;DHT22;12081;48.614;10.226;2023-09-19T02:44:13;16.50;99.90
23801;DHT22;12081;48.614;10.226;2023-09-19T02:46:58;14.40;99.90
23801;DHT22;12081;48.614;10.226;2023-09-19T02:49:43;14.30;99.90
23801;DHT22;12081;48.614;10.226;2023-09-19T02:52:28;14.30;99.90
23801;DHT22;12081;48.614;10.226;2023-09-19T02:55:12;14.40;99.90
23801;DHT22;12081;48.614;10.226;2023-09-19T02:57:58;14.50;99.90
23801;DHT22;12081;48.614;10.226;2023-09-19T03:00:43;14.50;99.90
23801;DHT22;12081;48.614;10.226;2023-09-19T03:03:31;14.50;99.90
23801;DHT22;12081;48.614;10.226;2023-09-19T05:32:37;13.80;99.90
23801;DHT22;12081;48.614;10.226;2023-09-19T05:35:25;15.70;99.90
23801;DHT22;12081;48.614;10.226;2023-09-19T05:38:10;13.90;99.90
23801;DHT22;12081;48.614;10.226;2023-09-19T05:40:57;14.20;99.90
23801;DHT22;12081;48.614;10.226;2023-09-19T05:43:41;14.10;99.90
23801;DHT22;12081;48.614;10.226;2023-09-19T05:46:25;15.60;99.90
23801;DHT22;12081;48.614;10.226;2023-09-19T05:49:13;14.00;99.90
23801;DHT22;12081;48.614;10.226;2023-09-19T05:51:59;15.00;99.90
23801;DHT22;12081;48.614;10.226;2023-09-19T05:54:45;14.00;99.90
23801;DHT22;12081;48.614;10.226;2023-09-19T05:57:29;14.10;99.90
23801;DHT22;12081;48.614;10.226;2023-09-19T06:00:14;15.10;99.90
23801;DHT22;12081;48.614;10.226;2023-09-19T06:02:59;14.20;99.90
23801;DHT22;12081;48.614;10.226;2023-09-19T06:05:44;14.70;99.90
23801;DHT22;12081;48.614;10.226;2023-09-19T06:08:29;15.50;99.90
23801;DHT22;12081;48.614;10.226;2023-09-19T06:11:15;16.70;99.90
23801;DHT22;12081;48.614;10.226;2023-09-19T06:13:59;17.00;99.90
23801;DHT22;12081;48.614;10.226;2023-09-19T06:16:44;17.30;99.90
23801;DHT22;12081;48.614;10.226;2023-09-19T06:19:29;18.00;99.90
23801;DHT22;12081;48.614;10.226;2023-09-19T06:22:15;18.90;99.90
23801;DHT22;12081;48.614;10.226;2023-09-19T06:25:03;20.00;99.90
23801;DHT22;12081;48.614;10.226;2023-09-19T06:27:53;21.00;99.90
23801;DHT22;12081;48.614;10.226;2023-09-19T06:30:38;22.10;99.90
23801;DHT22;12081;48.614;10.226;2023-09-19T06:33:26;22.90;99.90
23801;DHT22;12081;48.614;10.226;2023-09-19T06:36:10;23.20;99.90
23801;DHT22;12081;48.614;10.226;2023-09-19T06:38:55;23.10;99.90
23801;DHT22;12081;48.614;10.226;2023-09-19T06:41:39;22.50;99.90
23801;DHT22;12081;48.614;10.226;2023-09-19T06:44:25;21.70;99.90
23801;DHT22;12081;48.614;10.226;2023-09-19T06:47:09;20.50;99.90
23801;DHT22;12081;48.614;10.226;2023-09-19T06:49:54;20.10;99.90
23801;DHT22;12081;48.614;10.226;2023-09-19T06:52:39;19.30;99.90
23801;DHT22;12081;48.614;10.226;2023-09-19T06:55:24;18.40;99.90
23801;DHT22;12081;48.614;10.226;2023-09-19T06:58:09;18.00;99.90
23801;DHT22;12081;48.614;10.226;2023-09-19T07:00:54;17.70;99.90
23801;DHT22;12081;48.614;10.226;2023-09-19T07:03:38;17.60;99.90
23801;DHT22;12081;48.614;10.226;2023-09-19T07:06:23;17.30;99.90
23801;DHT22;12081;48.614;10.226;2023-09-19T07:09:08;18.10;99.90
23801;DHT22;12081;48.614;10.226;2023-09-19T07:11:54;17.20;99.90
23801;DHT22;12081;48.614;10.226;2023-09-19T07:14:38;17.00;99.90
23801;DHT22;12081;48.614;10.226;2023-09-19T07:17:22;17.00;99.90
23801;DHT22;12081;48.614;10.226;2023-09-19T07:20:08;17.30;99.90
23801;DHT22;12081;48.614;10.226;2023-09-19T07:22:53;16.90;99.90
23801;DHT22;12081;48.614;10.226;2023-09-19T07:25:38;16.80;99.90
23801;DHT22;12081;48.614;10.226;2023-09-19T07:28:22;16.70;99.90
23801;DHT22;12081;48.614;10.226;2023-09-19T07:31:06;17.30;99.90
23801;DHT22;12081;48.614;10.226;2023-09-19T07:33:54;16.70;99.90
23801;DHT22;12081;48.614;10.226;2023-09-19T07:36:38;17.10;99.90
23801;DHT22;12081;48.614;10.226;2023-09-19T07:39:22;17.10;99.90
23801;DHT22;12081;48.614;10.226;2023-09-19T07:42:07;16.90;99.90
23801;DHT22;12081;48.614;10.226;2023-09-19T07:44:51;16.80;99.90
23801;DHT22;12081;48.614;10.226;2023-09-19T07:47:38;16.90;99.90
23801;DHT22;12081;48.614;10.226;2023-09-19T07:50:23;16.80;99.90
23801;DHT22;12081;48.614;10.226;2023-09-19T07:53:07;16.60;99.90
23801;DHT22;12081;48.614;10.226;2023-09-19T07:55:51;16.50;99.90
23801;DHT22;12081;48.614;10.226;2023-09-19T07:58:40;17.60;99.90
23801;DHT22;12081;48.614;10.226;2023-09-19T08:01:28;16.20;99.90
23801;DHT22;12081;48.614;10.226;2023-09-19T08:04:12;16.00;99.90
23801;DHT22;12081;48.614;10.226;2023-09-19T08:06:56;15.90;99.90
23801;DHT22;12081;48.614;10.226;2023-09-19T08:09:44;15.70;99.90
23801;DHT22;12081;48.614;10.226;2023-09-19T08:12:30;15.50;99.90
23801;DHT22;12081;48.614;10.226;2023-09-19T08:15:16;15.60;99.90
23801;DHT22;12081;48.614;10.226;2023-09-19T08:18:00;15.50;99.90
23801;DHT22;12081;48.614;10.226;2023-09-19T08:20:50;17.10;99.90
23801;DHT22;12081;48.614;10.226;2023-09-19T08:23:35;15.50;99.90
23801;DHT22;12081;48.614;10.226;2023-09-19T08:26:19;15.90;99.90
23801;DHT22;12081;48.614;10.226;2023-09-19T08:29:03;16.50;99.90
23801;DHT22;12081;48.614;10.226;2023-09-19T08:31:50;17.30;99.90
23801;DHT22;12081;48.614;10.226;2023-09-19T08:34:35;17.90;99.90
23801;DHT22;12081;48.614;10.226;2023-09-19T08:37:22;20.10;99.90
23801;DHT22;12081;48.614;10.226;2023-09-19T08:40:06;19.60;99.90
23801;DHT22;12081;48.614;10.226;2023-09-19T08:42:55;21.20;99.90
23801;DHT22;12081;48.614;10.226;2023-09-19T08:45:40;23.00;99.90
23801;DHT22;12081;48.614;10.226;2023-09-19T08:48:28;24.00;99.90
23801;DHT22;12081;48.614;10.226;2023-09-19T08:51:18;24.90;99.90
23801;DHT22;12081;48.614;10.226;2023-09-19T08:54:08;24.50;99.90
23801;DHT22;12081;48.614;10.226;2023-09-19T08:57:00;23.60;99.90
23801;DHT22;12081;48.614;10.226;2023-09-19T08:59:52;22.80;99.90
23801;DHT22;12081;48.614;10.226;2023-09-19T09:02:39;22.50;99.90
23801;DHT22;12081;48.614;10.226;2023-09-19T09:05:25;22.40;99.90
23801;DHT22;12081;48.614;10.226;2023-09-19T09:08:10;23.10;99.90
23801;DHT22;12081;48.614;10.226;2023-09-19T09:10:55;24.10;99.90
23801;DHT22;12081;48.614;10.226;2023-09-19T09:13:41;25.30;99.90
23801;DHT22;12081;48.614;10.226;2023-09-19T09:16:26;26.00;99.90
23801;DHT22;12081;48.614;10.226;2023-09-19T09:19:10;26.70;97.20
23801;DHT22;12081;48.614;10.226;2023-09-19T09:22:06;27.30;96.80
23801;DHT22;12081;48.614;10.226;2023-09-19T09:24:54;27.30;94.30
23801;DHT22;12081;48.614;10.226;2023-09-19T09:27:40;27.80;93.60
23801;DHT22;12081;48.614;10.226;2023-09-19T09:30:35;27.00;92.20
23801;DHT22;12081;48.614;10.226;2023-09-19T09:33:21;26.80;92.30
23801;DHT22;12081;48.614;10.226;2023-09-19T09:36:05;27.90;90.30
23801;DHT22;12081;48.614;10.226;2023-09-19T09:38:50;28.30;87.80
23801;DHT22;12081;48.614;10.226;2023-09-19T09:41:39;29.90;78.00
23801;DHT22;12081;48.614;10.226;2023-09-19T09:44:24;30.70;72.60
23801;DHT22;12081;48.614;10.226;2023-09-19T09:47:08;29.80;72.60
23801;DHT22;12081;48.614;10.226;2023-09-19T09:50:11;31.10;73.50
23801;DHT22;12081;48.614;10.226;2023-09-19T09:53:01;30.50;72.00
23801;DHT22;12081;48.614;10.226;2023-09-19T09:56:20;31.10;71.50
23801;DHT22;12081;48.614;10.226;2023-09-19T09:59:04;31.20;65.50
23801;DHT22;12081;48.614;10.226;2023-09-19T10:01:48;29.50;66.50
23801;DHT22;12081;48.614;10.226;2023-09-19T10:04:33;28.80;69.20
23801;DHT22;12081;48.614;10.226;2023-09-19T10:07:30;27.50;70.40
23801;DHT22;12081;48.614;10.226;2023-09-19T10:10:35;26.50;74.20
23801;DHT22;12081;48.614;10.226;2023-09-19T10:13:26;25.20;76.00
23801;DHT22;12081;48.614;10.226;2023-09-19T10:16:13;23.70;82.00
23801;DHT22;12081;48.614;10.226;2023-09-19T10:19:02;22.90;88.80
23801;DHT22;12081;48.614;10.226;2023-09-19T10:21:50;22.90;92.50
23801;DHT22;12081;48.614;10.226;2023-09-19T10:24:35;22.30;95.50
23801;DHT22;12081;48.614;10.226;2023-09-19T10:27:22;22.40;96.50
23801;DHT22;12081;48.614;10.226;2023-09-19T10:30:10;22.30;96.30
23801;DHT22;12081;48.614;10.226;2023-09-19T10:33:00;22.30;97.20
23801;DHT22;12081;48.614;10.226;2023-09-19T10:35:47;22.80;95.40
23801;DHT22;12081;48.614;10.226;2023-09-19T10:38:33;23.70;94.60
23801;DHT22;12081;48.614;10.226;2023-09-19T10:41:20;24.50;92.10
23801;DHT22;12081;48.614;10.226;2023-09-19T10:44:05;25.50;86.80
23801;DHT22;12081;48.614;10.226;2023-09-19T10:46:50;25.30;84.70
23801;DHT22;12081;48.614;10.226;2023-09-19T10:49:44;25.80;79.70
23801;DHT22;12081;48.614;10.226;2023-09-19T10:52:30;26.20;79.60
23801;DHT22;12081;48.614;10.226;2023-09-19T10:55:17;26.30;77.30
23801;DHT22;12081;48.614;10.226;2023-09-19T10:58:03;26.40;77.20
23801;DHT22;12081;48.614;10.226;2023-09-19T11:00:58;26.10;74.50
23801;DHT22;12081;48.614;10.226;2023-09-19T11:04:32;25.60;78.00
23801;DHT22;12081;48.614;10.226;2023-09-19T11:07:20;25.20;79.30
23801;DHT22;12081;48.614;10.226;2023-09-19T11:10:05;25.80;77.30
23801;DHT22;12081;48.614;10.226;2023-09-19T11:12:55;26.20;74.80
23801;DHT22;12081;48.614;10.226;2023-09-19T11:27:10;27.60;66.60
23801;DHT22;12081;48.614;10.226;2023-09-19T11:30:26;28.20;64.00
23801;DHT22;12081;48.614;10.226;2023-09-19T11:33:26;28.30;63.60
23801;DHT22;12081;48.614;10.226;2023-09-19T11:36:35;28.00;65.30
23801;DHT22;12081;48.614;10.226;2023-09-19T11:39:26;28.00;64.00
23801;DHT22;12081;48.614;10.226;2023-09-19T11:48:34;28.60;58.80
23801;DHT22;12081;48.614;10.226;2023-09-19T11:51:20;28.00;62.10
23801;DHT22;12081;48.614;10.226;2023-09-19T11:54:11;27.90;62.70
23801;DHT22;12081;48.614;10.226;2023-09-19T11:57:02;28.10;59.40
23801;DHT22;12081;48.614;10.226;2023-09-19T11:59:47;28.20;59.40
23801;DHT22;12081;48.614;10.226;2023-09-19T12:02:39;27.90;60.00
23801;DHT22;12081;48.614;10.226;2023-09-19T12:05:31;28.50;58.70
23801;DHT22;12081;48.614;10.226;2023-09-19T12:08:18;29.40;58.80
23801;DHT22;12081;48.614;10.226;2023-09-19T12:11:05;29.60;57.50
23801;DHT22;12081;48.614;10.226;2023-09-19T12:13:51;30.60;56.20
23801;DHT22;12081;48.614;10.226;2023-09-19T12:16:37;31.50;54.30
23801;DHT22;12081;48.614;10.226;2023-09-19T12:19:22;31.70;53.60
23801;DHT22;12081;48.614;10.226;2023-09-19T12:22:07;32.30;50.80
23801;DHT22;12081;48.614;10.226;2023-09-19T12:24:53;32.60;50.30
23801;DHT22;12081;48.614;10.226;2023-09-19T12:27:46;32.10;50.10
23801;DHT22;12081;48.614;10.226;2023-09-19T12:30:40;32.10;50.90
23801;DHT22;12081;48.614;10.226;2023-09-19T12:33:26;31.10;50.60
23801;DHT22;12081;48.614;10.226;2023-09-19T12:36:23;30.70;50.80
23801;DHT22;12081;48.614;10.226;2023-09-19T12:39:24;30.40;50.70
23801;DHT22;12081;48.614;10.226;2023-09-19T12:42:10;30.50;51.90
23801;DHT22;12081;48.614;10.226;2023-09-19T12:44:55;30.40;50.60
23801;DHT22;12081;48.614;10.226;2023-09-19T12:47:40;29.80;51.60
23801;DHT22;12081;48.614;10.226;2023-09-19T12:50:27;29.30;52.00
23801;DHT22;12081;48.614;10.226;2023-09-19T12:53:25;29.00;52.90
23801;DHT22;12081;48.614;10.226;2023-09-19T12:56:12;28.70;53.00
23801;DHT22;12081;48.614;10.226;2023-09-19T12:58:58;28.10;54.80
23801;DHT22;12081;48.614;10.226;2023-09-19T13:01:44;28.00;54.70
23801;DHT22;12081;48.614;10.226;2023-09-19T13:04:30;27.80;53.90
23801;DHT22;12081;48.614;10.226;2023-09-19T13:07:43;27.80;54.80
23801;DHT22;12081;48.614;10.226;2023-09-19T13:10:29;27.70;55.00
23801;DHT22;12081;48.614;10.226;2023-09-19T13:13:23;27.90;53.90
23801;DHT22;12081;48.614;10.226;2023-09-19T13:16:11;27.70;54.60
23801;DHT22;12081;48.614;10.226;2023-09-19T13:18:58;27.10;54.90
23801;DHT22;12081;48.614;10.226;2023-09-19T13:21:42;26.90;55.70
23801;DHT22;12081;48.614;10.226;2023-09-19T13:24:33;26.50;56.60
23801;DHT22;12081;48.614;10.226;2023-09-19T13:27:19;26.40;56.30
23801;DHT22;12081;48.614;10.226;2023-09-19T13:30:03;26.50;56.00
23801;DHT22;12081;48.614;10.226;2023-09-19T13:32:49;26.60;56.50
23801;DHT22;12081;48.614;10.226;2023-09-19T13:35:33;27.00;56.30
23801;DHT22;12081;48.614;10.226;2023-09-19T13:38:17;27.10;56.00
23801;DHT22;12081;48.614;10.226;2023-09-19T13:41:02;27.00;54.80
23801;DHT22;12081;48.614;10.226;2023-09-19T13:43:46;27.20;56.30
23801;DHT22;12081;48.614;10.226;2023-09-19T13:46:33;26.80;56.30
23801;DHT22;12081;48.614;10.226;2023-09-19T13:49:19;26.20;57.20
23801;DHT22;12081;48.614;10.226;2023-09-19T13:52:03;25.90;57.60
23801;DHT22;12081;48.614;10.226;2023-09-19T13:54:52;25.60;58.40
23801;DHT22;12081;48.614;10.226;2023-09-19T13:57:42;25.50;57.50
23801;DHT22;12081;48.614;10.226;2023-09-19T14:00:27;25.30;58.30
23801;DHT22;12081;48.614;10.226;2023-09-19T14:03:12;25.20;58.00
23801;DHT22;12081;48.614;10.226;2023-09-19T14:05:57;25.20;59.40
23801;DHT22;12081;48.614;10.226;2023-09-19T14:08:41;24.90;58.70
23801;DHT22;12081;48.614;10.226;2023-09-19T14:11:25;24.70;60.10
23801;DHT22;12081;48.614;10.226;2023-09-19T14:14:10;24.80;60.00
23801;DHT22;12081;48.614;10.226;2023-09-19T14:16:54;25.00;58.50
23801;DHT22;12081;48.614;10.226;2023-09-19T14:19:41;25.00;58.10
23801;DHT22;12081;48.614;10.226;2023-09-19T14:22:25;24.80;57.80
23801;DHT22;12081;48.614;10.226;2023-09-19T14:25:10;24.90;59.00
23801;DHT22;12081;48.614;10.226;2023-09-19T14:27:54;25.10;57.10
23801;DHT22;12081;48.614;10.226;2023-09-19T14:30:39;25.00;58.00
23801;DHT22;12081;48.614;10.226;2023-09-19T14:33:23;24.90;58.20
23801;DHT22;12081;48.614;10.226;2023-09-19T14:36:08;24.90;58.70
23801;DHT22;12081;48.614;10.226;2023-09-19T14:38:54;24.80;57.80
23801;DHT22;12081;48.614;10.226;2023-09-19T14:41:39;24.50;57.70
23801;DHT22;12081;48.614;10.226;2023-09-19T14:44:23;24.30;58.20
23801;DHT22;12081;48.614;10.226;2023-09-19T14:47:07;24.30;57.90
23801;DHT22;12081;48.614;10.226;2023-09-19T14:49:51;24.40;58.80
23801;DHT22;12081;48.614;10.226;2023-09-19T14:52:35;24.40;59.40
23801;DHT22;12081;48.614;10.226;2023-09-19T14:55:20;24.60;59.80
23801;DHT22;12081;48.614;10.226;2023-09-19T14:58:04;24.70;60.70
23801;DHT22;12081;48.614;10.226;2023-09-19T15:00:48;24.70;60.20
23801;DHT22;12081;48.614;10.226;2023-09-19T15:03:33;24.70;60.60
23801;DHT22;12081;48.614;10.226;2023-09-19T15:06:18;24.50;59.50
23801;DHT22;12081;48.614;10.226;2023-09-19T15:09:06;24.30;60.10
23801;DHT22;12081;48.614;10.226;2023-09-19T15:11:54;24.20;59.50
23801;DHT22;12081;48.614;10.226;2023-09-19T15:14:38;24.20;60.10
23801;DHT22;12081;48.614;10.226;2023-09-19T15:17:22;24.20;59.60
23801;DHT22;12081;48.614;10.226;2023-09-19T15:20:09;24.10;60.20
23801;DHT22;12081;48.614;10.226;2023-09-19T15:22:57;24.00;60.60
23801;DHT22;12081;48.614;10.226;2023-09-19T15:25:48;23.70;60.40
23801;DHT22;12081;48.614;10.226;2023-09-19T15:28:33;23.40;60.80
23801;DHT22;12081;48.614;10.226;2023-09-19T15:31:18;23.00;63.20
23801;DHT22;12081;48.614;10.226;2023-09-19T15:34:03;23.20;63.20
23801;DHT22;12081;48.614;10.226;2023-09-19T15:36:47;23.30;64.90
23801;DHT22;12081;48.614;10.226;2023-09-19T15:39:31;23.30;62.10
23801;DHT22;12081;48.614;10.226;2023-09-19T15:42:19;23.40;63.30
23801;DHT22;12081;48.614;10.226;2023-09-19T15:45:03;23.30;62.50
23801;DHT22;12081;48.614;10.226;2023-09-19T15:47:48;23.10;61.80
23801;DHT22;12081;48.614;10.226;2023-09-19T15:50:32;22.90;63.10
23801;DHT22;12081;48.614;10.226;2023-09-19T15:53:16;22.70;63.20
23801;DHT22;12081;48.614;10.226;2023-09-19T15:56:06;22.70;63.60
23801;DHT22;12081;48.614;10.226;2023-09-19T15:58:53;22.60;64.00
23801;DHT22;12081;48.614;10.226;2023-09-19T16:01:41;22.50;65.90
23801;DHT22;12081;48.614;10.226;2023-09-19T16:04:26;22.60;64.10
23801;DHT22;12081;48.614;10.226;2023-09-19T16:07:10;22.50;64.60
23801;DHT22;12081;48.614;10.226;2023-09-19T16:09:54;22.50;66.30
23801;DHT22;12081;48.614;10.226;2023-09-19T16:12:39;22.50;66.70
23801;DHT22;12081;48.614;10.226;2023-09-19T16:15:23;22.60;67.10
23801;DHT22;12081;48.614;10.226;2023-09-19T16:18:07;22.60;66.10
23801;DHT22;12081;48.614;10.226;2023-09-19T16:20:52;22.80;65.30
23801;DHT22;12081;48.614;10.226;2023-09-19T16:23:36;22.50;66.30
23801;DHT22;12081;48.614;10.226;2023-09-19T16:26:22;22.50;67.40
23801;DHT22;12081;48.614;10.226;2023-09-19T16:29:07;22.50;65.20
23801;DHT22;12081;48.614;10.226;2023-09-19T16:31:54;22.40;66.80
23801;DHT22;12081;48.614;10.226;2023-09-19T16:34:38;22.30;67.20
23801;DHT22;12081;48.614;10.226;2023-09-19T16:37:22;22.20;68.60
23801;DHT22;12081;48.614;10.226;2023-09-19T16:40:07;22.10;68.70
23801;DHT22;12081;48.614;10.226;2023-09-19T16:42:53;21.90;69.30
23801;DHT22;12081;48.614;10.226;2023-09-19T16:45:37;21.80;68.70
23801;DHT22;12081;48.614;10.226;2023-09-19T16:48:24;21.70;69.30
23801;DHT22;12081;48.614;10.226;2023-09-19T16:51:14;21.60;70.10
23801;DHT22;12081;48.614;10.226;2023-09-19T16:53:58;21.30;71.10
23801;DHT22;12081;48.614;10.226;2023-09-19T16:56:42;21.10;72.60
23801;DHT22;12081;48.614;10.226;2023-09-19T16:59:26;21.00;74.00
23801;DHT22;12081;48.614;10.226;2023-09-19T17:02:10;20.90;74.40
23801;DHT22;12081;48.614;10.226;2023-09-19T17:04:55;20.70;75.70
23801;DHT22;12081;48.614;10.226;2023-09-19T17:07:38;20.50;76.30
23801;DHT22;12081;48.614;10.226;2023-09-19T17:10:22;20.20;77.20
23801;DHT22;12081;48.614;10.226;2023-09-19T17:13:06;20.10;79.90
23801;DHT22;12081;48.614;10.226;2023-09-19T17:16:00;19.90;82.10
23801;DHT22;12081;48.614;10.226;2023-09-19T17:18:44;19.70;84.20
23801;DHT22;12081;48.614;10.226;2023-09-19T17:21:29;18.50;85.00
23801;DHT22;12081;48.614;10.226;2023-09-19T17:24:13;19.30;87.60
23801;DHT22;12081;48.614;10.226;2023-09-19T17:26:57;19.20;91.00
23801;DHT22;12081;48.614;10.226;2023-09-19T17:29:42;19.00;92.60
23801;DHT22;12081;48.614;10.226;2023-09-19T17:32:26;18.90;94.40
23801;DHT22;12081;48.614;10.226;2023-09-19T17:35:12;18.60;95.80
23801;DHT22;12081;48.614;10.226;2023-09-19T17:37:56;18.40;98.00
23801;DHT22;12081;48.614;10.226;2023-09-19T17:40:41;18.50;99.90
23801;DHT22;12081;48.614;10.226;2023-09-19T17:43:25;18.20;99.90
23801;DHT22;12081;48.614;10.226;2023-09-19T17:46:14;17.90;99.90
23801;DHT22;12081;48.614;10.226;2023-09-19T17:48:59;17.80;99.90
23801;DHT22;12081;48.614;10.226;2023-09-19T17:51:44;17.70;99.90
23801;DHT22;12081;48.614;10.226;2023-09-19T17:54:28;17.50;99.90
23801;DHT22;12081;48.614;10.226;2023-09-19T17:57:12;17.50;99.90
23801;DHT22;12081;48.614;10.226;2023-09-19T17:59:56;17.50;99.90
23801;DHT22;12081;48.614;10.226;2023-09-19T18:02:40;17.20;99.90
23801;DHT22;12081;48.614;10.226;2023-09-19T18:05:24;18.30;99.90
23801;DHT22;12081;48.614;10.226;2023-09-19T18:08:08;18.60;99.90
23801;DHT22;12081;48.614;10.226;2023-09-19T18:10:53;17.70;99.90
23801;DHT22;12081;48.614;10.226;2023-09-19T18:13:39;17.50;99.90
23801;DHT22;12081;48.614;10.226;2023-09-19T18:16:24;16.60;99.90
23801;DHT22;12081;48.614;10.226;2023-09-19T18:19:08;16.40;99.90
23801;DHT22;12081;48.614;10.226;2023-09-19T18:21:52;16.40;99.90
23801;DHT22;12081;48.614;10.226;2023-09-19T18:24:37;16.20;99.90
23801;DHT22;12081;48.614;10.226;2023-09-19T18:27:21;16.10;99.90
23801;DHT22;12081;48.614;10.226;2023-09-19T18:30:07;16.10;99.90
23801;DHT22;12081;48.614;10.226;2023-09-19T18:32:53;16.10;99.90
23801;DHT22;12081;48.614;10.226;2023-09-19T18:35:37;16.20;99.90
23801;DHT22;12081;48.614;10.226;2023-09-19T18:38:21;16.10;99.90
23801;DHT22;12081;48.614;10.226;2023-09-19T18:41:09;16.10;99.90
23801;DHT22;12081;48.614;10.226;2023-09-19T18:43:53;16.00;99.90
23801;DHT22;12081;48.614;10.226;2023-09-19T18:46:38;15.90;99.90
23801;DHT22;12081;48.614;10.226;2023-09-19T18:49:26;15.80;99.90
23801;DHT22;12081;48.614;10.226;2023-09-19T18:52:11;15.80;99.90
23801;DHT22;12081;48.614;10.226;2023-09-19T18:54:55;15.70;99.90
23801;DHT22;12081;48.614;10.226;2023-09-19T18:57:39;16.90;99.90
23801;DHT22;12081;48.614;10.226;2023-09-19T19:00:24;15.70;99.90
23801;DHT22;12081;48.614;10.226;2023-09-19T19:03:12;16.60;99.90
23801;DHT22;12081;48.614;10.226;2023-09-19T19:06:06;17.70;99.90
23801;DHT22;12081;48.614;10.226;2023-09-19T19:08:51;15.40;99.90
23801;DHT22;12081;48.614;10.226;2023-09-19T19:11:36;16.00;99.90
23801;DHT22;12081;48.614;10.226;2023-09-19T19:14:20;17.60;99.90
23801;DHT22;12081;48.614;10.226;2023-09-19T19:17:05;16.60;99.90
23801;DHT22;12081;48.614;10.226;2023-09-19T19:19:49;17.40;99.90
23801;DHT22;12081;48.614;10.226;2023-09-19T19:22:33;16.70;99.90
23801;DHT22;12081;48.614;10.226;2023-09-19T19:25:20;14.80;99.90
23801;DHT22;12081;48.614;10.226;2023-09-19T19:28:05;14.70;99.90
23801;DHT22;12081;48.614;10.226;2023-09-19T19:30:50;14.60;99.90
23801;DHT22;12081;48.614;10.226;2023-09-19T19:33:35;14.60;99.90
23801;DHT22;12081;48.614;10.226;2023-09-19T19:36:19;14.40;99.90
23801;DHT22;12081;48.614;10.226;2023-09-19T19:39:06;14.40;99.90
23801;DHT22;12081;48.614;10.226;2023-09-19T19:41:50;14.50;99.90
23801;DHT22;12081;48.614;10.226;2023-09-19T19:44:35;15.50;99.90
23801;DHT22;12081;48.614;10.226;2023-09-19T19:47:19;15.10;99.90
23801;DHT22;12081;48.614;10.226;2023-09-19T19:50:04;14.70;99.90
23801;DHT22;12081;48.614;10.226;2023-09-19T19:52:52;13.90;99.90
23801;DHT22;12081;48.614;10.226;2023-09-19T19:55:43;13.90;99.90
23801;DHT22;12081;48.614;10.226;2023-09-19T19:58:27;14.00;99.90
23801;DHT22;12081;48.614;10.226;2023-09-19T20:01:12;14.70;99.90
23801;DHT22;12081;48.614;10.226;2023-09-19T20:03:57;14.00;99.90
23801;DHT22;12081;48.614;10.226;2023-09-19T20:06:41;14.30;99.90
23801;DHT22;12081;48.614;10.226;2023-09-19T20:09:26;14.10;99.90
23801;DHT22;12081;48.614;10.226;2023-09-19T20:12:11;13.70;99.90